createdAt,value
2022-10-22T00:00:30.687Z,14.31
2022-10-22T00:01:32.410Z,14.27
2022-10-22T00:02:33.805Z,14.24
2022-10-22T00:03:35.196Z,14.25
2022-10-22T00:04:36.554Z,14.24
2022-10-22T00:05:38.003Z,14.24
2022-10-22T00:06:42.001Z,14.25
2022-10-22T00:07:43.517Z,14.23
2022-10-22T00:08:45.277Z,14.19
2022-10-22T00:09:47.222Z,14.18
2022-10-22T00:10:48.909Z,14.21
2022-10-22T00:11:50.372Z,14.19
2022-10-22T00:12:51.995Z,14.21
2022-10-22T00:13:53.324Z,14.18
2022-10-22T00:14:54.687Z,14.19
2022-10-22T00:15:55.989Z,14.15
2022-10-22T00:16:57.541Z,14.15
2022-10-22T00:17:58.864Z,14.14
2022-10-22T00:19:00.291Z,14.15
2022-10-22T00:20:02.125Z,14.13
2022-10-22T00:21:03.909Z,14.13
2022-10-22T00:22:05.254Z,14.14
2022-10-22T00:23:06.629Z,14.08
2022-10-22T00:24:08.068Z,14.07
2022-10-22T00:25:09.778Z,14.04
2022-10-22T00:26:11.154Z,14.05
2022-10-22T00:27:13.449Z,14.02
2022-10-22T00:28:16.218Z,14.02
2022-10-22T00:29:17.599Z,14.01
2022-10-22T00:30:19.346Z,14.00
2022-10-22T00:31:20.689Z,14.02
2022-10-22T00:32:22.032Z,14.02
2022-10-22T00:33:23.579Z,13.99
2022-10-22T00:34:25.308Z,13.98
2022-10-22T00:35:26.637Z,14.03
2022-10-22T00:36:28.086Z,14.02
2022-10-22T00:37:29.890Z,14.00
2022-10-22T00:38:31.370Z,13.98
2022-10-22T00:39:32.735Z,13.95
2022-10-22T00:40:34.090Z,13.93
2022-10-22T00:41:35.602Z,13.93
2022-10-22T00:42:37.472Z,13.91
2022-10-22T00:43:55.890Z,13.91
2022-10-22T00:45:06.676Z,13.89
2022-10-22T00:46:10.339Z,13.91
2022-10-22T00:47:11.694Z,13.89
2022-10-22T00:48:14.712Z,13.90
2022-10-22T00:49:16.152Z,13.91
2022-10-22T00:50:29.983Z,13.92
2022-10-22T00:51:33.798Z,13.93
2022-10-22T00:52:35.632Z,13.94
2022-10-22T00:53:36.918Z,13.98
2022-10-22T00:54:38.960Z,13.98
2022-10-22T00:55:41.998Z,13.96
2022-10-22T00:56:43.479Z,13.97
2022-10-22T00:57:45.508Z,13.99
2022-10-22T00:58:52.455Z,13.96
2022-10-22T00:59:54.231Z,13.98
2022-10-22T01:00:57.106Z,14.01
2022-10-22T01:01:58.642Z,13.99
2022-10-22T01:03:00.111Z,14.00
2022-10-22T01:04:01.722Z,13.99
2022-10-22T01:05:03.554Z,13.98
2022-10-22T01:06:05.547Z,13.99
2022-10-22T01:07:06.947Z,14.04
2022-10-22T01:08:12.686Z,14.10
2022-10-22T01:09:32.514Z,14.07
2022-10-22T01:10:49.623Z,14.06
2022-10-22T01:12:09.651Z,14.06
2022-10-22T01:13:17.266Z,14.04
2022-10-22T01:14:21.487Z,14.07
2022-10-22T01:15:22.801Z,14.04
2022-10-22T01:16:35.392Z,14.08
2022-10-22T01:17:43.244Z,14.09
2022-10-22T01:19:03.121Z,14.06
2022-10-22T01:20:13.030Z,14.03
2022-10-22T01:21:19.117Z,14.03
2022-10-22T01:22:26.657Z,14.03
2022-10-22T01:23:37.443Z,14.02
2022-10-22T01:24:44.514Z,14.04
2022-10-22T01:26:10.672Z,14.08
2022-10-22T01:27:18.277Z,14.06
2022-10-22T01:28:19.750Z,14.02
2022-10-22T01:29:30.174Z,14.04
2022-10-22T01:30:31.574Z,14.03
2022-10-22T01:31:36.095Z,14.01
2022-10-22T01:32:41.554Z,14.02
2022-10-22T01:33:44.214Z,14.04
2022-10-22T01:34:49.506Z,14.04
2022-10-22T01:35:52.671Z,14.00
2022-10-22T01:36:54.593Z,14.01
2022-10-22T01:37:58.354Z,14.00
2022-10-22T01:39:00.702Z,13.98
2022-10-22T01:40:02.222Z,13.98
2022-10-22T01:41:03.586Z,13.98
2022-10-22T01:42:04.956Z,13.97
2022-10-22T01:43:07.882Z,13.96
2022-10-22T01:44:22.396Z,13.96
2022-10-22T01:45:23.846Z,13.95
2022-10-22T01:46:27.586Z,13.93
2022-10-22T01:47:47.468Z,13.91
2022-10-22T01:49:07.227Z,13.88
2022-10-22T01:50:18.036Z,13.91
2022-10-22T01:51:29.902Z,13.89
2022-10-22T01:52:38.931Z,13.86
2022-10-22T01:53:46.376Z,13.87
2022-10-22T01:54:48.015Z,13.87
2022-10-22T01:55:56.579Z,13.84
2022-10-22T01:57:16.805Z,13.83
2022-10-22T01:58:36.661Z,13.82
2022-10-22T01:59:44.113Z,13.82
2022-10-22T02:00:50.529Z,13.79
2022-10-22T02:01:51.837Z,13.81
2022-10-22T02:02:55.910Z,13.80
2022-10-22T02:04:00.287Z,13.80
2022-10-22T02:05:04.786Z,13.79
2022-10-22T02:06:11.226Z,13.80
2022-10-22T02:07:14.869Z,13.78
2022-10-22T02:08:19.165Z,13.78
2022-10-22T02:09:21.622Z,13.80
2022-10-22T02:10:24.282Z,13.80
2022-10-22T02:11:26.281Z,13.79
2022-10-22T02:12:29.137Z,13.81
2022-10-22T02:13:34.405Z,13.81
2022-10-22T02:14:38.449Z,13.81
2022-10-22T02:15:39.981Z,13.82
2022-10-22T02:16:43.394Z,13.82
2022-10-22T02:17:46.149Z,13.81
2022-10-22T02:18:50.394Z,13.80
2022-10-22T02:20:00.557Z,13.85
2022-10-22T02:21:02.044Z,13.87
2022-10-22T02:22:03.755Z,13.87
2022-10-22T02:23:05.441Z,13.85
2022-10-22T02:24:07.398Z,13.85
2022-10-22T02:25:10.562Z,13.86
2022-10-22T02:26:18.962Z,13.86
2022-10-22T02:27:26.061Z,13.85
2022-10-22T02:28:57.801Z,13.85
2022-10-22T02:30:04.757Z,13.82
2022-10-22T02:31:19.164Z,13.84
2022-10-22T02:32:24.142Z,13.84
2022-10-22T02:33:33.798Z,13.83
2022-10-22T02:34:35.486Z,13.84
2022-10-22T02:35:39.167Z,13.84
2022-10-22T02:36:43.460Z,13.83
2022-10-22T02:37:47.143Z,13.82
2022-10-22T02:38:49.746Z,13.82
2022-10-22T02:39:51.588Z,13.80
2022-10-22T02:40:53.054Z,13.79
2022-10-22T02:41:54.407Z,13.79
2022-10-22T02:42:55.908Z,13.79
2022-10-22T02:43:57.373Z,13.78
2022-10-22T02:44:58.704Z,13.79
2022-10-22T02:46:00.111Z,13.80
2022-10-22T02:47:01.414Z,13.80
2022-10-22T02:48:03.313Z,13.79
2022-10-22T02:49:05.054Z,13.78
2022-10-22T02:50:09.481Z,13.76
2022-10-22T02:51:11.881Z,13.74
2022-10-22T02:52:13.205Z,13.75
2022-10-22T02:53:14.562Z,13.77
2022-10-22T02:54:16.013Z,13.81
2022-10-22T02:55:18.247Z,13.84
2022-10-22T02:56:19.631Z,13.83
2022-10-22T02:58:27.250Z,13.83
2022-10-22T02:59:28.568Z,13.80
2022-10-22T03:00:29.941Z,13.80
2022-10-22T03:01:31.316Z,13.80
2022-10-22T03:02:32.648Z,13.80
2022-10-22T03:03:33.970Z,13.80
2022-10-22T03:04:35.270Z,13.78
2022-10-22T03:05:36.608Z,13.74
2022-10-22T03:06:37.935Z,13.74
2022-10-22T03:07:39.512Z,13.72
2022-10-22T03:08:41.203Z,13.72
2022-10-22T03:09:42.606Z,13.75
2022-10-22T03:10:43.994Z,13.76
2022-10-22T03:11:45.342Z,13.79
2022-10-22T03:12:46.655Z,13.76
2022-10-22T03:13:48.002Z,13.74
2022-10-22T03:14:49.442Z,13.72
2022-10-22T03:15:50.925Z,13.71
2022-10-22T03:16:52.352Z,13.71
2022-10-22T03:17:53.677Z,13.69
2022-10-22T03:18:54.971Z,13.69
2022-10-22T03:19:56.293Z,13.70
2022-10-22T03:21:13.479Z,13.70
2022-10-22T03:22:16.679Z,13.70
2022-10-22T03:23:19.462Z,13.68
2022-10-22T03:24:23.440Z,13.68
2022-10-22T03:25:26.418Z,13.67
2022-10-22T03:26:29.653Z,13.68
2022-10-22T03:27:30.987Z,13.67
2022-10-22T03:28:33.011Z,13.66
2022-10-22T03:29:36.229Z,13.66
2022-10-22T03:30:37.568Z,13.66
2022-10-22T03:31:39.005Z,13.66
2022-10-22T03:32:40.514Z,13.66
2022-10-22T03:33:41.826Z,13.68
2022-10-22T03:34:43.222Z,13.67
2022-10-22T03:35:46.633Z,13.66
2022-10-22T03:36:48.462Z,13.64
2022-10-22T03:37:50.289Z,13.65
2022-10-22T03:38:51.697Z,13.65
2022-10-22T03:39:53.910Z,13.62
2022-10-22T03:40:55.408Z,13.61
2022-10-22T03:41:57.212Z,13.61
2022-10-22T03:42:58.769Z,13.63
2022-10-22T03:44:01.506Z,13.64
2022-10-22T03:45:02.948Z,13.69
2022-10-22T03:46:04.319Z,13.70
2022-10-22T03:47:05.767Z,13.71
2022-10-22T03:48:07.191Z,13.73
2022-10-22T03:49:08.574Z,13.73
2022-10-22T03:50:10.040Z,13.70
2022-10-22T03:51:11.423Z,13.69
2022-10-22T03:52:14.082Z,13.69
2022-10-22T03:53:15.449Z,13.70
2022-10-22T03:54:16.939Z,13.69
2022-10-22T03:55:18.321Z,13.69
2022-10-22T03:56:19.684Z,13.68
2022-10-22T03:57:20.993Z,13.68
2022-10-22T03:58:22.372Z,13.66
2022-10-22T03:59:23.730Z,13.66
2022-10-22T04:00:25.045Z,13.65
2022-10-22T04:01:27.502Z,13.64
2022-10-22T04:02:28.877Z,13.67
2022-10-22T04:03:30.210Z,13.67
2022-10-22T04:04:31.647Z,13.68
2022-10-22T04:05:33.403Z,13.65
2022-10-22T04:06:34.738Z,13.64
2022-10-22T04:07:36.113Z,13.62
2022-10-22T04:08:39.085Z,13.61
2022-10-22T04:09:40.454Z,13.60
2022-10-22T04:10:41.788Z,13.64
2022-10-22T04:11:43.132Z,13.65
2022-10-22T04:12:47.027Z,13.61
2022-10-22T04:13:48.399Z,13.61
2022-10-22T04:14:49.730Z,13.59
2022-10-22T04:15:51.265Z,13.58
2022-10-22T04:16:52.587Z,13.57
2022-10-22T04:17:54.126Z,13.53
2022-10-22T04:18:55.456Z,13.57
2022-10-22T04:19:56.813Z,13.63
2022-10-22T04:20:58.151Z,13.67
2022-10-22T04:21:59.929Z,13.62
2022-10-22T04:23:01.286Z,13.61
2022-10-22T04:24:02.687Z,13.58
2022-10-22T04:25:04.830Z,13.57
2022-10-22T04:26:07.215Z,13.55
2022-10-22T04:27:08.541Z,13.55
2022-10-22T04:28:10.187Z,13.54
2022-10-22T04:29:16.001Z,13.55
2022-10-22T04:30:18.349Z,13.57
2022-10-22T04:31:21.295Z,13.58
2022-10-22T04:32:22.852Z,13.55
2022-10-22T04:33:24.239Z,13.60
2022-10-22T04:34:28.773Z,13.60
2022-10-22T04:35:30.117Z,13.58
2022-10-22T04:36:31.441Z,13.55
2022-10-22T04:37:32.837Z,13.54
2022-10-22T04:38:34.201Z,13.53
2022-10-22T04:39:35.521Z,13.54
2022-10-22T04:40:36.883Z,13.53
2022-10-22T04:41:38.885Z,13.52
2022-10-22T04:42:40.250Z,13.51
2022-10-22T04:43:41.826Z,13.52
2022-10-22T04:44:43.174Z,13.52
2022-10-22T04:45:44.560Z,13.53
2022-10-22T04:46:45.890Z,13.53
2022-10-22T04:47:47.256Z,13.51
2022-10-22T04:48:48.923Z,13.51
2022-10-22T04:49:50.264Z,13.51
2022-10-22T04:50:51.591Z,13.50
2022-10-22T04:51:52.896Z,13.52
2022-10-22T04:52:54.236Z,13.52
2022-10-22T04:53:55.777Z,13.55
2022-10-22T04:54:57.109Z,13.59
2022-10-22T04:56:27.594Z,13.61
2022-10-22T04:57:31.915Z,13.61
2022-10-22T04:58:33.261Z,13.65
2022-10-22T04:59:34.587Z,13.68
2022-10-22T05:00:36.068Z,13.67
2022-10-22T05:01:42.638Z,13.67
2022-10-22T05:02:48.401Z,13.67
2022-10-22T05:03:51.139Z,13.65
2022-10-22T05:04:52.634Z,13.66
2022-10-22T05:05:53.987Z,13.69
2022-10-22T05:06:55.338Z,13.69
2022-10-22T05:07:56.638Z,13.70
2022-10-22T05:08:59.680Z,13.69
2022-10-22T05:10:01.052Z,13.68
2022-10-22T05:11:10.110Z,13.68
2022-10-22T05:12:11.478Z,13.66
2022-10-22T05:13:12.802Z,13.65
2022-10-22T05:14:15.341Z,13.64
2022-10-22T05:15:16.727Z,13.65
2022-10-22T05:16:18.042Z,13.66
2022-10-22T05:17:19.375Z,13.64
2022-10-22T05:18:22.582Z,13.63
2022-10-22T05:19:25.409Z,13.61
2022-10-22T05:20:26.719Z,13.62
2022-10-22T05:21:28.824Z,13.61
2022-10-22T05:22:30.182Z,13.60
2022-10-22T05:23:31.587Z,13.59
2022-10-22T05:24:33.940Z,13.56
2022-10-22T05:25:38.376Z,13.54
2022-10-22T05:26:39.714Z,13.52
2022-10-22T05:27:41.323Z,13.52
2022-10-22T05:28:42.989Z,13.50
2022-10-22T05:29:44.671Z,13.49
2022-10-22T05:30:55.962Z,13.47
2022-10-22T05:31:57.265Z,13.46
2022-10-22T05:32:59.251Z,13.46
2022-10-22T05:34:01.414Z,13.41
2022-10-22T05:35:03.473Z,13.42
2022-10-22T05:36:05.844Z,13.39
2022-10-22T05:37:07.141Z,13.35
2022-10-22T05:38:09.758Z,13.32
2022-10-22T05:39:11.178Z,13.32
2022-10-22T05:40:26.586Z,13.29
2022-10-22T05:41:32.745Z,13.27
2022-10-22T05:42:34.163Z,13.25
2022-10-22T05:43:36.020Z,13.23
2022-10-22T05:44:37.371Z,13.25
2022-10-22T05:45:39.791Z,13.21
2022-10-22T05:46:41.612Z,13.18
2022-10-22T05:47:43.699Z,13.23
2022-10-22T05:48:48.476Z,13.19
2022-10-22T05:49:49.784Z,13.15
2022-10-22T05:50:51.105Z,13.18
2022-10-22T05:51:52.417Z,13.15
2022-10-22T05:52:53.728Z,13.14
2022-10-22T05:53:56.561Z,13.12
2022-10-22T05:54:58.197Z,13.12
2022-10-22T05:56:03.357Z,13.10
2022-10-22T05:57:04.902Z,13.07
2022-10-22T05:58:09.425Z,13.02
2022-10-22T05:59:12.715Z,13.01
2022-10-22T06:00:16.948Z,12.98
2022-10-22T06:01:19.905Z,12.97
2022-10-22T06:02:21.273Z,12.96
2022-10-22T06:03:22.629Z,12.95
2022-10-22T06:04:23.975Z,12.95
2022-10-22T06:05:25.311Z,12.96
2022-10-22T06:06:29.494Z,12.95
2022-10-22T06:07:31.051Z,12.95
2022-10-22T06:08:33.135Z,12.97
2022-10-22T06:09:35.444Z,12.96
2022-10-22T06:10:37.253Z,12.96
2022-10-22T06:11:38.896Z,12.97
2022-10-22T06:12:40.475Z,12.99
2022-10-22T06:13:42.371Z,13.00
2022-10-22T06:14:43.851Z,13.02
2022-10-22T06:15:45.199Z,13.09
2022-10-22T06:16:46.528Z,13.13
2022-10-22T06:17:47.948Z,13.12
2022-10-22T06:18:49.345Z,13.11
2022-10-22T06:19:51.031Z,13.10
2022-10-22T06:20:52.372Z,13.10
2022-10-22T06:21:53.909Z,13.11
2022-10-22T06:22:55.279Z,13.12
2022-10-22T06:23:57.709Z,13.11
2022-10-22T06:24:59.118Z,13.11
2022-10-22T06:26:01.057Z,13.12
2022-10-22T06:27:02.455Z,13.15
2022-10-22T06:28:03.850Z,13.15
2022-10-22T06:29:05.288Z,13.15
2022-10-22T06:30:06.951Z,13.16
2022-10-22T06:31:09.535Z,13.16
2022-10-22T06:32:10.889Z,13.18
2022-10-22T06:33:12.207Z,13.19
2022-10-22T06:34:14.142Z,13.20
2022-10-22T06:35:15.531Z,13.19
2022-10-22T06:36:18.747Z,13.22
2022-10-22T06:37:20.130Z,13.23
2022-10-22T06:38:23.323Z,13.23
2022-10-22T06:39:25.040Z,13.27
2022-10-22T06:40:26.411Z,13.27
2022-10-22T06:41:29.554Z,13.30
2022-10-22T06:42:31.063Z,13.34
2022-10-22T06:43:34.721Z,13.38
2022-10-22T06:44:38.547Z,13.41
2022-10-22T06:45:40.005Z,13.43
2022-10-22T06:46:43.569Z,13.45
2022-10-22T06:47:45.211Z,13.48
2022-10-22T06:48:50.838Z,13.50
2022-10-22T06:49:52.317Z,13.52
2022-10-22T06:50:53.698Z,13.58
2022-10-22T06:51:55.065Z,13.65
2022-10-22T06:52:57.162Z,13.67
2022-10-22T06:53:58.988Z,13.68
2022-10-22T06:55:00.322Z,13.70
2022-10-22T06:56:09.154Z,13.76
2022-10-22T06:57:10.619Z,13.77
2022-10-22T06:58:11.959Z,13.76
2022-10-22T06:59:13.442Z,13.76
2022-10-22T07:00:15.298Z,13.77
2022-10-22T07:01:17.353Z,13.79
2022-10-22T07:02:18.883Z,13.84
2022-10-22T07:03:20.226Z,13.92
2022-10-22T07:04:21.564Z,13.94
2022-10-22T07:05:23.344Z,13.95
2022-10-22T07:06:25.257Z,13.99
2022-10-22T07:07:27.054Z,14.01
2022-10-22T07:08:29.153Z,14.02
2022-10-22T07:09:30.815Z,14.06
2022-10-22T07:10:32.290Z,14.07
2022-10-22T07:11:43.555Z,14.11
2022-10-22T07:12:45.118Z,14.12
2022-10-22T07:13:46.732Z,14.16
2022-10-22T07:14:48.986Z,14.21
2022-10-22T07:15:53.538Z,14.22
2022-10-22T07:16:54.895Z,14.26
2022-10-22T07:17:56.212Z,14.29
2022-10-22T07:18:57.589Z,14.33
2022-10-22T07:19:58.891Z,14.38
2022-10-22T07:21:00.516Z,14.40
2022-10-22T07:22:02.186Z,14.42
2022-10-22T07:23:03.518Z,14.45
2022-10-22T07:24:04.962Z,14.47
2022-10-22T07:25:07.350Z,14.48
2022-10-22T07:26:08.965Z,14.53
2022-10-22T07:27:11.033Z,14.56
2022-10-22T07:28:15.595Z,14.59
2022-10-22T07:29:19.934Z,14.64
2022-10-22T07:30:21.308Z,14.68
2022-10-22T07:31:22.998Z,14.72
2022-10-22T07:32:24.365Z,14.76
2022-10-22T07:33:25.972Z,14.79
2022-10-22T07:34:27.285Z,14.84
2022-10-22T07:35:28.875Z,14.91
2022-10-22T07:36:33.453Z,14.96
2022-10-22T07:37:34.802Z,14.98
2022-10-22T07:38:36.640Z,15.01
2022-10-22T07:39:37.993Z,15.04
2022-10-22T07:40:39.551Z,15.05
2022-10-22T07:41:40.945Z,15.08
2022-10-22T07:42:42.811Z,15.11
2022-10-22T07:43:44.630Z,15.14
2022-10-22T07:44:45.999Z,15.14
2022-10-22T07:45:47.547Z,15.16
2022-10-22T07:46:49.877Z,15.18
2022-10-22T07:47:51.434Z,15.21
2022-10-22T07:48:53.111Z,15.23
2022-10-22T07:49:54.445Z,15.24
2022-10-22T07:50:58.387Z,15.25
2022-10-22T07:51:59.758Z,15.28
2022-10-22T07:53:01.257Z,15.31
2022-10-22T07:54:03.264Z,15.29
2022-10-22T07:55:05.203Z,15.32
2022-10-22T07:56:06.749Z,15.36
2022-10-22T07:57:08.090Z,15.39
2022-10-22T07:58:09.417Z,15.45
2022-10-22T07:59:11.003Z,15.48
2022-10-22T08:00:12.631Z,15.55
2022-10-22T08:01:13.949Z,15.58
2022-10-22T08:02:15.348Z,15.60
2022-10-22T08:03:20.719Z,15.62
2022-10-22T08:04:22.243Z,15.63
2022-10-22T08:05:26.389Z,15.66
2022-10-22T08:06:28.008Z,15.68
2022-10-22T08:07:30.156Z,15.70
2022-10-22T08:08:36.342Z,15.71
2022-10-22T08:09:41.780Z,15.74
2022-10-22T08:10:44.111Z,15.73
2022-10-22T08:11:45.458Z,15.75
2022-10-22T08:12:46.839Z,15.78
2022-10-22T08:13:48.841Z,15.80
2022-10-22T08:14:50.574Z,15.79
2022-10-22T08:15:53.701Z,15.80
2022-10-22T08:17:04.182Z,15.80
2022-10-22T08:18:05.834Z,15.79
2022-10-22T08:19:07.208Z,15.83
2022-10-22T08:20:08.734Z,15.80
2022-10-22T08:21:11.045Z,15.81
2022-10-22T08:22:12.409Z,15.78
2022-10-22T08:23:13.785Z,15.78
2022-10-22T08:24:15.204Z,15.77
2022-10-22T08:25:17.327Z,15.75
2022-10-22T08:26:21.040Z,15.70
2022-10-22T08:27:22.698Z,15.68
2022-10-22T08:28:24.099Z,15.68
2022-10-22T08:29:25.956Z,15.64
2022-10-22T08:30:27.307Z,15.64
2022-10-22T08:31:29.580Z,15.62
2022-10-22T08:32:31.346Z,15.60
2022-10-22T08:33:32.878Z,15.60
2022-10-22T08:34:34.380Z,15.60
2022-10-22T08:35:35.953Z,15.58
2022-10-22T08:36:37.313Z,15.61
2022-10-22T08:37:38.883Z,15.59
2022-10-22T08:38:40.511Z,15.58
2022-10-22T08:39:41.913Z,15.62
2022-10-22T08:40:46.050Z,15.61
2022-10-22T08:41:50.299Z,15.63
2022-10-22T08:43:05.780Z,15.61
2022-10-22T08:44:27.375Z,15.60
2022-10-22T08:45:28.737Z,15.58
2022-10-22T08:46:30.439Z,15.61
2022-10-22T08:47:32.081Z,15.61
2022-10-22T08:48:39.405Z,15.62
2022-10-22T08:49:42.365Z,15.64
2022-10-22T08:50:46.060Z,15.67
2022-10-22T08:51:48.002Z,15.67
2022-10-22T08:52:52.070Z,15.68
2022-10-22T08:53:53.385Z,15.71
2022-10-22T08:54:58.902Z,15.73
2022-10-22T08:56:00.424Z,15.82
2022-10-22T08:57:08.475Z,15.84
2022-10-22T08:58:25.157Z,15.83
2022-10-22T08:59:32.991Z,15.84
2022-10-22T09:00:40.497Z,15.92
2022-10-22T09:01:47.619Z,15.91
2022-10-22T09:03:08.356Z,15.91
2022-10-22T09:04:18.365Z,15.92
2022-10-22T09:05:32.870Z,15.94
2022-10-22T09:06:35.412Z,15.96
2022-10-22T09:07:37.134Z,15.98
2022-10-22T09:08:39.602Z,16.01
2022-10-22T09:09:45.114Z,16.09
2022-10-22T09:10:48.919Z,16.11
2022-10-22T09:11:51.324Z,16.25
2022-10-22T09:12:52.853Z,16.28
2022-10-22T09:13:55.036Z,16.28
2022-10-22T09:14:56.746Z,16.33
2022-10-22T09:16:11.511Z,16.35
2022-10-22T09:17:30.236Z,16.39
2022-10-22T09:18:38.716Z,16.43
2022-10-22T09:19:47.531Z,16.46
2022-10-22T09:20:54.030Z,16.50
2022-10-22T09:21:58.126Z,16.51
2022-10-22T09:23:19.703Z,16.55
2022-10-22T09:24:24.173Z,16.59
2022-10-22T09:25:30.888Z,16.62
2022-10-22T09:26:36.490Z,16.63
2022-10-22T09:27:37.900Z,16.68
2022-10-22T09:28:39.435Z,16.73
2022-10-22T09:29:41.470Z,16.81
2022-10-22T09:30:42.924Z,16.88
2022-10-22T09:31:44.938Z,16.93
2022-10-22T09:32:51.331Z,16.95
2022-10-22T09:33:53.734Z,17.04
2022-10-22T09:34:57.181Z,17.06
2022-10-22T09:36:02.387Z,17.12
2022-10-22T09:37:07.809Z,17.16
2022-10-22T09:38:10.043Z,17.24
2022-10-22T09:39:22.916Z,17.26
2022-10-22T09:40:24.371Z,17.33
2022-10-22T09:41:27.580Z,17.38
2022-10-22T09:42:29.617Z,17.44
2022-10-22T09:43:32.073Z,17.46
2022-10-22T09:44:34.611Z,17.48
2022-10-22T09:45:36.025Z,17.52
2022-10-22T09:46:38.808Z,17.52
2022-10-22T09:47:43.186Z,17.53
2022-10-22T09:49:05.502Z,17.54
2022-10-22T09:50:18.310Z,17.57
2022-10-22T09:51:21.738Z,17.58
2022-10-22T09:52:26.633Z,17.70
2022-10-22T09:53:32.016Z,17.77
2022-10-22T09:54:41.607Z,17.85
2022-10-22T09:55:43.561Z,17.86
2022-10-22T09:56:56.065Z,17.85
2022-10-22T09:57:59.211Z,17.83
2022-10-22T09:59:00.937Z,17.83
2022-10-22T10:00:02.237Z,17.85
2022-10-22T10:01:19.555Z,17.87
2022-10-22T10:02:38.321Z,17.87
2022-10-22T10:03:40.341Z,17.93
2022-10-22T10:04:52.265Z,17.93
2022-10-22T10:06:00.070Z,17.94
2022-10-22T10:07:36.006Z,17.95
2022-10-22T10:08:38.831Z,17.93
2022-10-22T10:09:40.639Z,17.91
2022-10-22T10:10:47.468Z,17.92
2022-10-22T10:11:53.604Z,17.93
2022-10-22T10:12:55.003Z,17.93
2022-10-22T10:13:56.916Z,17.88
2022-10-22T10:14:58.430Z,17.84
2022-10-22T10:16:07.690Z,17.83
2022-10-22T10:17:14.938Z,17.85
2022-10-22T10:18:18.578Z,17.86
2022-10-22T10:19:35.275Z,17.85
2022-10-22T10:20:36.542Z,17.88
2022-10-22T10:21:44.738Z,17.86
2022-10-22T10:22:46.117Z,17.83
2022-10-22T10:24:16.774Z,17.82
2022-10-22T10:25:33.288Z,17.82
2022-10-22T10:26:38.746Z,17.84
2022-10-22T10:27:43.079Z,17.85
2022-10-22T10:28:47.773Z,17.83
2022-10-22T10:29:55.953Z,17.85
2022-10-22T10:31:06.393Z,17.87
2022-10-22T10:32:26.421Z,17.86
2022-10-22T10:33:27.842Z,17.91
2022-10-22T10:34:38.253Z,17.93
2022-10-22T10:35:48.075Z,17.97
2022-10-22T10:36:58.741Z,17.99
2022-10-22T10:38:02.910Z,18.04
2022-10-22T10:39:09.060Z,18.08
2022-10-22T10:40:10.367Z,18.12
2022-10-22T10:41:23.426Z,18.20
2022-10-22T10:42:35.766Z,18.26
2022-10-22T10:43:37.144Z,18.31
2022-10-22T10:44:48.289Z,18.38
2022-10-22T10:46:08.549Z,18.44
2022-10-22T10:47:29.172Z,18.42
2022-10-22T10:48:45.670Z,18.47
2022-10-22T10:49:47.711Z,18.53
2022-10-22T10:50:49.417Z,18.62
2022-10-22T10:52:17.426Z,18.69
2022-10-22T10:53:21.815Z,18.74
2022-10-22T10:54:28.555Z,18.78
2022-10-22T10:55:32.388Z,18.88
2022-10-22T10:56:36.798Z,18.92
2022-10-22T10:57:46.508Z,19.02
2022-10-22T10:58:47.850Z,18.99
2022-10-22T10:59:49.159Z,18.95
2022-10-22T11:00:55.346Z,18.87
2022-10-22T11:02:10.044Z,18.83
2022-10-22T11:03:35.785Z,18.75
2022-10-22T11:04:56.904Z,18.65
2022-10-22T11:06:00.109Z,18.56
2022-10-22T11:07:10.980Z,18.48
2022-10-22T11:08:18.325Z,18.40
2022-10-22T11:09:28.855Z,18.35
2022-10-22T11:10:36.005Z,18.35
2022-10-22T11:11:56.675Z,18.37
2022-10-22T11:13:06.489Z,18.39
2022-10-22T11:14:25.333Z,18.42
2022-10-22T11:15:35.069Z,18.45
2022-10-22T11:16:47.990Z,18.47
2022-10-22T11:17:49.551Z,18.49
2022-10-22T11:19:01.314Z,18.49
2022-10-22T11:20:25.850Z,18.51
2022-10-22T11:21:32.322Z,18.54
2022-10-22T11:23:17.027Z,18.53
2022-10-22T11:24:09.938Z,18.57
2022-10-22T11:25:15.477Z,18.57
2022-10-22T11:26:37.136Z,18.56
2022-10-22T11:27:53.411Z,18.61
2022-10-22T11:28:57.317Z,18.64
2022-10-22T11:30:02.627Z,18.67
2022-10-22T11:31:08.337Z,18.61
2022-10-22T11:32:15.370Z,18.59
2022-10-22T11:33:19.251Z,18.57
2022-10-22T11:34:34.334Z,18.56
2022-10-22T11:35:40.154Z,18.57
2022-10-22T11:36:41.863Z,18.59
2022-10-22T11:37:45.664Z,18.66
2022-10-22T11:38:47.298Z,18.65
2022-10-22T11:39:53.584Z,18.65
2022-10-22T11:40:58.846Z,18.69
2022-10-22T11:42:03.313Z,18.66
2022-10-22T11:43:06.048Z,18.64
2022-10-22T11:44:07.372Z,18.65
2022-10-22T11:45:14.475Z,18.67
2022-10-22T11:46:15.771Z,18.69
2022-10-22T11:47:19.519Z,18.68
2022-10-22T11:48:26.468Z,18.65
2022-10-22T11:49:41.270Z,18.65
2022-10-22T11:50:54.755Z,18.64
2022-10-22T11:52:16.150Z,18.63
2022-10-22T11:53:20.025Z,18.62
2022-10-22T11:54:40.833Z,18.65
2022-10-22T11:55:46.519Z,18.66
2022-10-22T11:56:53.440Z,18.64
2022-10-22T11:58:18.096Z,18.60
2022-10-22T11:59:39.567Z,18.63
2022-10-22T12:00:46.601Z,18.61
2022-10-22T12:01:47.973Z,18.57
2022-10-22T12:03:01.512Z,18.55
2022-10-22T12:04:05.684Z,18.53
2022-10-22T12:05:22.089Z,18.56
2022-10-22T12:06:24.410Z,18.59
2022-10-22T12:07:45.788Z,18.62
2022-10-22T12:08:50.248Z,18.67
2022-10-22T12:11:13.576Z,18.77
2022-10-22T12:12:15.568Z,18.78
2022-10-22T12:13:22.515Z,18.80
2022-10-22T12:14:32.488Z,18.76
2022-10-22T12:15:34.202Z,18.75
2022-10-22T12:16:55.127Z,18.79
2022-10-22T12:18:00.918Z,18.77
2022-10-22T12:19:23.976Z,18.75
2022-10-22T12:20:26.000Z,18.73
2022-10-22T12:21:27.350Z,18.73
2022-10-22T12:22:32.873Z,18.74
2022-10-22T12:23:34.960Z,18.79
2022-10-22T12:24:37.706Z,18.74
2022-10-22T12:25:39.277Z,18.67
2022-10-22T12:26:40.783Z,18.62
2022-10-22T12:27:42.558Z,18.56
2022-10-22T12:28:44.191Z,18.55
2022-10-22T12:29:45.916Z,18.53
2022-10-22T12:30:47.335Z,18.50
2022-10-22T12:32:00.462Z,18.49
2022-10-22T12:33:21.281Z,18.53
2022-10-22T12:34:23.719Z,18.56
2022-10-22T12:35:25.824Z,18.63
2022-10-22T12:36:27.830Z,18.70
2022-10-22T12:37:29.276Z,18.79
2022-10-22T12:38:30.591Z,18.96
2022-10-22T12:39:32.003Z,19.09
2022-10-22T12:40:35.212Z,19.04
2022-10-22T12:41:37.351Z,19.02
2022-10-22T12:42:38.678Z,18.99
2022-10-22T12:43:40.118Z,18.98
2022-10-22T12:44:42.891Z,19.02
2022-10-22T12:45:46.105Z,19.08
2022-10-22T12:46:51.749Z,19.14
2022-10-22T12:47:57.345Z,19.13
2022-10-22T12:49:00.314Z,19.17
2022-10-22T12:50:03.434Z,19.23
2022-10-22T12:51:05.664Z,19.23
2022-10-22T12:52:13.436Z,19.28
2022-10-22T12:53:15.438Z,19.29
2022-10-22T12:54:22.151Z,19.32
2022-10-22T12:55:25.176Z,19.38
2022-10-22T12:56:28.398Z,19.42
2022-10-22T12:57:29.758Z,19.49
2022-10-22T12:58:38.371Z,19.57
2022-10-22T12:59:45.865Z,19.52
2022-10-22T13:00:54.097Z,19.48
2022-10-22T13:01:56.303Z,19.44
2022-10-22T13:02:59.256Z,19.42
2022-10-22T13:04:12.811Z,19.45
2022-10-22T13:05:14.243Z,19.42
2022-10-22T13:06:18.650Z,19.45
2022-10-22T13:07:29.398Z,19.50
2022-10-22T13:08:38.884Z,19.49
2022-10-22T13:09:57.202Z,19.48
2022-10-22T13:11:13.209Z,19.48
2022-10-22T13:12:14.756Z,19.47
2022-10-22T13:13:37.991Z,19.49
2022-10-22T13:14:56.040Z,19.50
2022-10-22T13:16:18.354Z,19.52
2022-10-22T13:17:41.624Z,19.57
2022-10-22T13:18:46.198Z,19.58
2022-10-22T13:19:56.563Z,19.59
2022-10-22T13:20:59.995Z,19.59
2022-10-22T13:22:26.454Z,19.59
2022-10-22T13:23:35.018Z,19.55
2022-10-22T13:24:48.895Z,19.56
2022-10-22T13:25:57.440Z,19.55
2022-10-22T13:26:58.808Z,19.53
2022-10-22T13:28:00.099Z,19.50
2022-10-22T13:29:01.960Z,19.49
2022-10-22T13:30:09.244Z,19.50
2022-10-22T13:31:24.501Z,19.51
2022-10-22T13:32:27.721Z,19.48
2022-10-22T13:33:32.023Z,19.47
2022-10-22T13:34:33.615Z,19.45
2022-10-22T13:35:36.718Z,19.45
2022-10-22T13:36:38.031Z,19.45
2022-10-22T13:37:39.709Z,19.45
2022-10-22T13:38:41.412Z,19.43
2022-10-22T13:39:42.820Z,19.44
2022-10-22T13:40:44.131Z,19.42
2022-10-22T13:41:45.533Z,19.40
2022-10-22T13:42:46.835Z,19.43
2022-10-22T13:43:48.185Z,19.42
2022-10-22T13:44:49.458Z,19.42
2022-10-22T13:46:00.127Z,19.40
2022-10-22T13:47:01.492Z,19.39
2022-10-22T13:48:03.296Z,19.41
2022-10-22T13:49:04.721Z,19.42
2022-10-22T13:50:17.227Z,19.41
2022-10-22T13:51:20.221Z,19.40
2022-10-22T13:52:29.682Z,19.39
2022-10-22T13:53:31.192Z,19.41
2022-10-22T13:54:32.528Z,19.37